Aérodrome :
LOGIN :

S'inscrire | Disclaimer

   EN    FR    IT 

 










Légende :    VFR   VFR Marginal   IFR   IFR Intensif   IFR Très Intensif
Visi : 
Plafond : 
>= 8 km
>= 3000ft
5 à 8 km
1000 à 3000 ft
1500m à 5 km
500 à 1000 ft
800 à 1500m
200 à 500 ft
< 800m
< 200 ft
Symboles :   Orages  Brouillard  Fortes neiges  Fortes précipitations  Vent > 20 kt
SIGMETs :   Divers  Orages  Givrage  Turbulence  Onde Orograph.  Cendres Volcan.







- Altitude de l'aérodrome : 489 ft
- Code IATA : GDN


EPGD - Gdansk

DERNIER METAR :
  • 211300Z 25015KT 9999 -DZ SCT007 BKN009 09/07 Q1028

METARs EXPIRÉS :
  • 211230Z 26014KT 220V280 9999 -DZ FEW005 BKN011 09/07 Q1028
  • 211200Z 26015KT 9999 BKN011 10/06 Q1028
  • 211130Z 27016KT 9999 BKN015 10/06 Q1029
  • 211100Z 25017KT 9999 BKN014 09/05 Q1029
  • 211030Z 25017KT 9999 SCT017 09/05 Q1029

TAF TAF EPGD
Valide du 21 à 12h jusqu'au 22 à 12h UTC


211130Z 2112/2212 25015KT 9999 SCT008 BKN012
TEMPO 2112/2119 BKN007
BECMG 2119/2122 33005KT 3000 BR BKN005
TEMPO 2123/2207 1200 BR BKN002
PROB40
TEMPO 2123/2206 0500 FG OVC001
BECMG 2209/2212 BKN015
Pas de NOTAMs connus pour ce terrain.



MET'MAP, la Météo Aéronautique d'un coup d'oeil ! - Copyright ORBIFLY Décembre 2007 - Disclaimer

ORBIFLY MET'MAP TEAM :

Programmation & Développement : Alexandra Zaïnal
Conception & Développement : Baudouin d'Aumeries
Co-Programmation & Développement : Marc-Olivier Méhu
Soutien technique & logistique : Manuel Goepfert

Contact : metmap@orbifly.com




SOURCES & CREDITS :

   NOAA